Time;durP1;ratioP1;P1;durP2;ratioP2;P2;SDS_P1;SDS_P2;PMS_P1;PMS_P2;Temp;Humidity;BMP_temperature;BMP_pressure;BME280_temperature;BME280_humidity;BME280_pressure;Samples;Min_cycle;Max_cycle;Signal;HPM_P1;HPM_P2
2023/10/28 00:01:46;;;;;;;0.20;0.20;;;;;;;17.08;100.00;99427.91;4994709;28;20040;-90
2023/10/28 00:04:12;;;;;;;0.20;0.20;;;;;;;17.13;100.00;99435.06;4994735;28;20022;-90
2023/10/28 00:06:39;;;;;;;0.30;0.30;;;;;;;17.09;100.00;99421.03;4994993;28;20094;-90
2023/10/28 00:09:05;;;;;;;0.20;0.20;;;;;;;17.12;100.00;99423.03;5004642;28;20560;-90
2023/10/28 00:11:32;;;;;;;0.20;0.20;;;;;;;17.17;100.00;99428.16;4992470;28;20022;-90
2023/10/28 00:13:57;;;;;;;0.20;0.20;;;;;;;17.04;100.00;99413.09;4992541;28;20051;-90
2023/10/28 00:16:23;;;;;;;0.20;0.20;;;;;;;16.88;100.00;99396.09;4975293;28;20082;-90
2023/10/28 00:18:49;;;;;;;0.20;0.20;;;;;;;17.02;100.00;99421.97;4977968;28;20033;-90
2023/10/28 00:21:17;;;;;;;0.20;0.20;;;;;;;17.01;100.00;99414.75;4978892;28;20050;-90
2023/10/28 00:23:43;;;;;;;0.20;0.20;;;;;;;16.87;100.00;99409.34;4996335;28;20104;-91
2023/10/28 00:26:10;;;;;;;0.20;0.20;;;;;;;17.13;100.00;99447.09;4997974;28;20030;-90
2023/10/28 00:28:36;;;;;;;0.30;0.30;;;;;;;17.18;100.00;99451.44;5016197;28;20482;-90
2023/10/28 00:31:03;;;;;;;0.20;0.20;;;;;;;17.04;100.00;99446.81;5015823;28;20036;-90
2023/10/28 00:33:29;;;;;;;0.20;0.20;;;;;;;16.99;100.00;99428.44;4998474;28;20025;-90
2023/10/28 00:35:55;;;;;;;0.20;0.20;;;;;;;16.93;100.00;99434.94;4999604;28;20045;-89
2023/10/28 00:38:22;;;;;;;0.20;0.20;;;;;;;17.08;100.00;99447.56;5015777;28;20040;-91
2023/10/28 00:40:49;;;;;;;0.20;0.20;;;;;;;17.00;100.00;99440.47;4997887;28;20493;-90
2023/10/28 00:43:15;;;;;;;0.20;0.20;;;;;;;17.09;100.00;99449.16;4998530;28;20026;-91
2023/10/28 00:45:41;;;;;;;0.20;0.20;;;;;;;16.87;100.00;99426.19;4998253;28;20026;-90
2023/10/28 00:48:06;;;;;;;0.20;0.20;;;;;;;17.00;100.00;99441.28;5015474;28;20103;-90
2023/10/28 00:50:32;;;;;;;0.20;0.20;;;;;;;17.14;100.00;99445.88;5014977;28;20262;-91
2023/10/28 00:53:00;;;;;;;0.20;0.20;;;;;;;16.90;100.00;99416.94;4997698;28;20041;-91
2023/10/28 00:55:29;;;;;;;0.20;0.20;;;;;;;17.11;100.00;99446.72;4998224;28;20481;-90
2023/10/28 00:57:55;;;;;;;0.20;0.20;;;;;;;17.07;100.00;99436.75;4997947;28;20026;-91
2023/10/28 01:00:21;;;;;;;0.20;0.20;;;;;;;17.11;100.00;99441.09;5015421;28;20026;-90
2023/10/28 01:02:46;;;;;;;0.30;0.30;;;;;;;16.91;100.00;99424.13;5015640;28;20080;-90
2023/10/28 01:05:13;;;;;;;0.20;0.20;;;;;;;17.02;100.00;99443.66;4997886;28;20032;-90
2023/10/28 01:07:41;;;;;;;0.20;0.20;;;;;;;17.13;100.00;99441.47;5015660;28;20030;-91
2023/10/28 01:10:08;;;;;;;0.20;0.20;;;;;;;17.02;100.00;99438.03;4997476;28;20121;-90
2023/10/28 01:12:35;;;;;;;0.20;0.20;;;;;;;17.03;100.00;99437.59;4997840;28;20065;-91
2023/10/28 01:15:02;;;;;;;0.20;0.20;;;;;;;17.04;100.00;99444.00;5015170;28;20497;-90
2023/10/28 01:17:29;;;;;;;0.30;0.30;;;;;;;16.89;100.00;99434.22;4998242;28;20486;-90
2023/10/28 01:19:56;;;;;;;0.20;0.20;;;;;;;16.91;100.00;99438.19;5015317;28;20474;-91
2023/10/28 01:22:23;;;;;;;0.20;0.20;;;;;;;16.85;100.00;99433.47;4997103;28;20038;-91
2023/10/28 01:24:50;;;;;;;0.20;0.20;;;;;;;16.79;100.00;99432.38;5015176;28;20029;-91
2023/10/28 01:27:17;;;;;;;0.20;0.20;;;;;;;16.85;100.00;99433.47;4997809;28;20034;-91
2023/10/28 01:29:43;;;;;;;0.30;0.30;;;;;;;16.84;100.00;99420.66;5014479;28;20474;-91
2023/10/28 01:32:08;;;;;;;0.20;0.20;;;;;;;16.86;100.00;99423.81;4997261;28;20112;-90
2023/10/28 01:34:49;;;;;;;0.20;0.20;;;;;;;16.91;100.00;99428.97;5014652;28;20034;-91
2023/10/28 01:37:16;;;;;;;0.20;0.20;;;;;;;16.72;100.00;99413.56;5014715;28;20084;-91
2023/10/28 01:39:44;;;;;;;0.30;0.30;;;;;;;16.89;100.00;99425.81;5014923;28;20527;-91
2023/10/28 01:42:13;;;;;;;0.25;0.25;;;;;;;16.92;100.00;99427.75;5014487;28;20072;-90
2023/10/28 01:44:39;;;;;;;0.20;0.20;;;;;;;16.96;100.00;99426.47;4997017;28;20568;-90
2023/10/28 01:47:04;;;;;;;0.20;0.20;;;;;;;16.79;100.00;99407.09;5014246;28;20293;-90
2023/10/28 01:49:31;;;;;;;0.20;0.20;;;;;;;16.96;100.00;99422.88;4996405;28;20076;-90
2023/10/28 01:51:56;;;;;;;0.20;0.20;;;;;;;16.91;100.00;99431.78;5014088;28;20036;-90
2023/10/28 01:54:22;;;;;;;0.20;0.20;;;;;;;16.71;100.00;99395.94;4996889;28;20472;-90
2023/10/28 01:56:47;;;;;;;0.20;0.20;;;;;;;16.90;100.00;99410.53;4997060;28;20034;-90
2023/10/28 01:59:12;;;;;;;0.20;0.20;;;;;;;16.80;100.00;99411.47;5013930;28;20513;-90
2023/10/28 02:01:38;;;;;;;0.20;0.20;;;;;;;16.68;100.00;99393.16;4996629;28;20056;-91
2023/10/28 02:04:06;;;;;;;0.20;0.20;;;;;;;16.75;100.00;99423.97;4996858;28;20032;-91
2023/10/28 02:06:32;;;;;;;0.20;0.20;;;;;;;16.53;100.00;99417.03;4996726;28;20072;-91
2023/10/28 02:08:57;;;;;;;0.20;0.20;;;;;;;16.40;100.00;99413.97;4996592;28;20063;-91
2023/10/28 02:11:23;;;;;;;0.20;0.20;;;;;;;16.51;100.00;99425.88;4997103;28;20129;-91
2023/10/28 02:13:49;;;;;;;0.20;0.20;;;;;;;16.40;100.00;99422.41;4997873;28;20474;-91
2023/10/28 02:16:15;;;;;;;0.20;0.20;;;;;;;16.54;100.00;99432.66;4996390;28;20034;-91
2023/10/28 02:18:40;;;;;;;0.20;0.20;;;;;;;16.64;100.00;99426.91;5014191;28;20493;-91
2023/10/28 02:21:06;;;;;;;0.20;0.20;;;;;;;16.63;100.00;99422.50;5013317;28;20196;-90
2023/10/28 02:23:33;;;;;;;0.20;0.20;;;;;;;16.69;100.00;99426.44;5013463;28;20030;-90
2023/10/28 02:25:58;;;;;;;0.20;0.20;;;;;;;16.56;100.00;99421.81;4996190;28;20032;-91
2023/10/28 02:28:24;;;;;;;0.20;0.20;;;;;;;16.36;100.00;99390.81;4996486;28;20153;-91
2023/10/28 02:30:49;;;;;;;0.28;0.28;;;;;;;16.54;100.00;99422.22;4996124;28;20033;-91
2023/10/28 02:33:14;;;;;;;0.20;0.20;;;;;;;16.52;100.00;99424.69;5013821;28;20048;-90
2023/10/28 02:35:40;;;;;;;0.20;0.20;;;;;;;16.44;100.00;99409.91;4995858;28;20030;-91
2023/10/28 02:38:05;;;;;;;0.20;0.20;;;;;;;16.56;100.00;99411.34;5019322;28;20393;-91
2023/10/28 02:40:31;;;;;;;0.20;0.20;;;;;;;16.60;100.00;99431.78;5012962;28;20030;-91
2023/10/28 02:42:56;;;;;;;0.20;0.20;;;;;;;16.54;100.00;99419.41;4995967;28;20143;-90
2023/10/28 02:45:22;;;;;;;0.20;0.20;;;;;;;16.58;100.00;99422.19;5013518;28;20032;-91
2023/10/28 02:47:49;;;;;;;0.30;0.30;;;;;;;16.55;100.00;99432.25;4995376;28;20033;-91
2023/10/28 02:50:15;;;;;;;0.20;0.20;;;;;;;16.60;100.00;99445.03;4995572;28;20449;-91
2023/10/28 02:52:40;;;;;;;0.20;0.20;;;;;;;16.58;100.00;99431.41;4995581;28;20033;-91
2023/10/28 02:55:06;;;;;;;0.20;0.20;;;;;;;16.55;100.00;99421.00;4995373;28;20040;-91
2023/10/28 02:57:34;;;;;;;0.20;0.20;;;;;;;16.73;100.00;99438.47;4995901;28;20062;-90
2023/10/28 03:00:00;;;;;;;0.20;0.20;;;;;;;16.59;100.00;99416.16;4995522;28;20476;-91
2023/10/28 03:02:25;;;;;;;0.20;0.20;;;;;;;16.66;100.00;99427.28;5013302;28;20033;-90
2023/10/28 03:04:50;;;;;;;0.20;0.20;;;;;;;16.66;100.00;99418.84;4995832;28;20029;-91
2023/10/28 03:07:16;;;;;;;0.20;0.20;;;;;;;16.83;100.00;99447.13;4995462;28;20499;-90
2023/10/28 03:09:41;;;;;;;0.20;0.20;;;;;;;16.71;100.00;99432.44;5013364;28;20124;-91
2023/10/28 03:12:07;;;;;;;0.20;0.20;;;;;;;16.73;100.00;99441.25;4995719;28;20037;-90
2023/10/28 03:14:32;;;;;;;0.20;0.20;;;;;;;16.81;100.00;99449.59;4995923;28;20172;-90
2023/10/28 03:16:57;;;;;;;0.20;0.20;;;;;;;16.68;100.00;99418.44;5015300;28;20037;-91
2023/10/28 03:19:23;;;;;;;0.20;0.20;;;;;;;16.81;100.00;99449.59;5013829;28;20030;-90
2023/10/28 03:21:48;;;;;;;0.20;0.20;;;;;;;16.79;100.00;99464.06;5034923;28;20060;-90
2023/10/28 03:24:13;;;;;;;0.20;0.20;;;;;;;16.41;100.00;99421.22;5011791;28;20099;-90
2023/10/28 03:26:39;;;;;;;0.20;0.20;;;;;;;16.80;100.00;99457.22;4995581;28;20030;-90
2023/10/28 03:29:06;;;;;;;0.20;0.20;;;;;;;16.77;100.00;99467.28;4994874;28;20072;-91
2023/10/28 03:31:31;;;;;;;0.20;0.20;;;;;;;16.67;100.00;99445.75;5012519;28;20186;-89
2023/10/28 03:33:57;;;;;;;0.20;0.20;;;;;;;16.65;100.00;99439.72;4995072;28;20517;-92
2023/10/28 03:36:23;;;;;;;0.20;0.20;;;;;;;16.66;100.00;99432.88;4994993;28;20042;-90
2023/10/28 03:38:48;;;;;;;0.20;0.20;;;;;;;16.81;100.00;99438.34;5012296;28;20188;-90
2023/10/28 03:41:14;;;;;;;0.20;0.20;;;;;;;16.91;100.00;99437.41;5012462;28;20505;-90
2023/10/28 03:43:41;;;;;;;0.20;0.20;;;;;;;16.89;100.00;99437.84;4995096;28;20033;-89
2023/10/28 03:46:06;;;;;;;0.20;0.20;;;;;;;16.74;100.00;99433.63;4994889;28;20164;-91
2023/10/28 03:48:33;;;;;;;0.20;0.20;;;;;;;16.83;100.00;99452.75;4994511;28;20120;-91
2023/10/28 03:51:00;;;;;;;0.20;0.20;;;;;;;16.75;100.00;99455.66;4995152;28;20037;-91
2023/10/28 03:53:26;;;;;;;0.20;0.20;;;;;;;16.63;100.00;99439.38;4994922;28;20025;-91
2023/10/28 03:55:52;;;;;;;0.20;0.20;;;;;;;16.73;100.00;99460.94;4994831;28;20037;-91
2023/10/28 03:58:17;;;;;;;0.20;0.20;;;;;;;16.67;100.00;99462.59;4994788;28;20054;-90
2023/10/28 04:00:43;;;;;;;0.20;0.20;;;;;;;16.63;100.00;99461.84;4994741;28;20106;-91
2023/10/28 04:03:08;;;;;;;0.20;0.20;;;;;;;16.58;100.00;99447.47;4994495;28;20034;-91
2023/10/28 04:05:34;;;;;;;0.20;0.20;;;;;;;16.55;100.00;99460.31;4995703;28;20022;-91
2023/10/28 04:07:59;;;;;;;0.20;0.20;;;;;;;16.54;100.00;99455.94;4995073;28;20124;-91
2023/10/28 04:10:25;;;;;;;0.20;0.20;;;;;;;16.53;100.00;99450.75;4975992;28;20041;-90
2023/10/28 04:12:51;;;;;;;0.20;0.20;;;;;;;16.48;100.00;99449.19;4975077;28;20030;-90
2023/10/28 04:15:18;;;;;;;0.20;0.20;;;;;;;16.38;100.00;99450.91;4992820;28;20030;-90
2023/10/28 04:17:44;;;;;;;0.20;0.20;;;;;;;16.60;100.00;99479.50;4976337;28;20034;-90
2023/10/28 04:20:10;;;;;;;0.20;0.20;;;;;;;16.36;100.00;99446.94;4991998;28;20045;-91
2023/10/28 04:22:38;;;;;;;0.30;0.30;;;;;;;16.57;100.00;99476.78;4975256;28;20046;-91
2023/10/28 04:25:05;;;;;;;0.20;0.20;;;;;;;16.59;100.00;99469.50;4975278;28;20034;-90
2023/10/28 04:27:32;;;;;;;0.20;0.20;;;;;;;16.57;100.00;99446.66;4975610;28;20034;-90
2023/10/28 04:29:57;;;;;;;0.20;0.20;;;;;;;16.61;100.00;99455.81;4994015;28;20030;-91
2023/10/28 04:32:23;;;;;;;0.20;0.20;;;;;;;16.64;100.00;99463.41;4993932;28;20528;-90
2023/10/28 04:34:51;;;;;;;0.20;0.20;;;;;;;16.40;100.00;99442.06;5011821;28;20490;-91
2023/10/28 04:37:17;;;;;;;0.30;0.30;;;;;;;16.52;100.00;99494.88;4994338;28;20391;-90
2023/10/28 04:39:42;;;;;;;0.20;0.20;;;;;;;16.52;100.00;99489.25;4994725;28;20026;-91
2023/10/28 04:42:07;;;;;;;0.20;0.20;;;;;;;16.49;100.00;99490.09;4994654;28;20025;-91
2023/10/28 04:44:33;;;;;;;0.20;0.20;;;;;;;16.48;100.00;99499.72;5012626;28;20441;-91
2023/10/28 04:47:01;;;;;;;0.20;0.20;;;;;;;16.49;100.00;99495.69;5012136;28;20549;-91
2023/10/28 04:49:27;;;;;;;0.20;0.20;;;;;;;16.62;100.00;99502.38;4994512;28;20036;-91
2023/10/28 04:51:54;;;;;;;0.20;0.20;;;;;;;16.58;100.00;99498.81;4994559;28;20026;-90
2023/10/28 04:54:20;;;;;;;0.20;0.20;;;;;;;16.24;100.00;99451.91;4994476;28;20040;-92
2023/10/28 04:56:48;;;;;;;0.20;0.20;;;;;;;16.54;100.00;99486.03;5012062;28;20029;-91
2023/10/28 04:59:15;;;;;;;0.20;0.20;;;;;;;16.58;100.00;99493.19;4994446;28;20026;-91
2023/10/28 05:01:41;;;;;;;0.20;0.20;;;;;;;16.50;100.00;99486.06;4994138;28;20022;-91
2023/10/28 05:04:08;;;;;;;0.20;0.20;;;;;;;16.73;100.00;99502.28;4995535;28;20025;-90
2023/10/28 05:06:33;;;;;;;0.20;0.20;;;;;;;16.55;100.00;99474.34;5015168;28;20056;-90
2023/10/28 05:08:59;;;;;;;0.20;0.20;;;;;;;16.62;100.00;99502.38;4997000;28;20113;-91
2023/10/28 05:11:25;;;;;;;0.20;0.20;;;;;;;16.53;100.00;99490.84;4997492;28;20116;-91
2023/10/28 05:13:51;;;;;;;0.20;0.20;;;;;;;16.55;100.00;99504.47;4997588;28;20065;-91
2023/10/28 05:16:18;;;;;;;0.20;0.20;;;;;;;16.52;100.00;99496.88;4997920;28;20041;-90
2023/10/28 05:18:45;;;;;;;0.20;0.20;;;;;;;16.38;100.00;99495.81;5015149;28;20021;-91
2023/10/28 05:21:11;;;;;;;0.20;0.20;;;;;;;16.54;100.00;99502.88;4997633;28;20042;-91
2023/10/28 05:23:37;;;;;;;0.20;0.20;;;;;;;16.36;100.00;99484.22;5015048;28;20307;-91
2023/10/28 05:26:04;;;;;;;0.20;0.20;;;;;;;16.39;100.00;99491.00;4997519;28;20359;-91
2023/10/28 05:28:30;;;;;;;0.22;0.22;;;;;;;16.48;100.00;99502.53;5015103;28;20026;-91
2023/10/28 05:30:55;;;;;;;0.30;0.30;;;;;;;16.54;100.00;99509.28;4997440;28;20014;-91
2023/10/28 05:33:21;;;;;;;0.20;0.20;;;;;;;16.42;100.00;99498.59;4997181;28;20030;-90
2023/10/28 05:35:48;;;;;;;0.20;0.20;;;;;;;16.43;100.00;99505.81;4996981;28;20048;-90
2023/10/28 05:38:14;;;;;;;0.20;0.20;;;;;;;16.49;100.00;99512.56;4996923;28;20108;-91
2023/10/28 05:40:39;;;;;;;0.20;0.20;;;;;;;16.50;100.00;99517.72;5014528;28;20125;-91
2023/10/28 05:43:05;;;;;;;0.20;0.20;;;;;;;16.48;100.00;99500.53;4997917;28;20113;-91
2023/10/28 05:45:30;;;;;;;0.20;0.20;;;;;;;16.52;100.00;99506.09;5001976;28;20022;-91
2023/10/28 05:47:56;;;;;;;0.20;0.20;;;;;;;16.59;100.00;99505.22;5020239;28;20112;-91
2023/10/28 05:50:21;;;;;;;0.20;0.20;;;;;;;16.83;100.00;99523.81;5001843;28;20029;-91
2023/10/28 05:52:47;;;;;;;0.20;0.20;;;;;;;16.92;100.00;99531.72;5018865;28;20030;-90
2023/10/28 05:55:12;;;;;;;0.20;0.20;;;;;;;16.80;100.00;99521.84;5000952;28;20456;-90
2023/10/28 05:57:41;;;;;;;0.20;0.20;;;;;;;16.95;100.00;99540.09;5018367;28;20044;-90
2023/10/28 06:00:10;;;;;;;0.20;0.20;;;;;;;17.03;100.00;99530.34;5014121;28;20226;-91
2023/10/28 06:02:37;;;;;;;0.20;0.20;;;;;;;17.07;100.00;99521.06;4996451;28;20224;-90
2023/10/28 06:05:05;;;;;;;0.20;0.20;;;;;;;17.38;100.00;99536.69;4996564;28;20530;-91
2023/10/28 06:07:31;;;;;;;0.20;0.20;;;;;;;17.58;100.00;99542.41;5013763;28;20041;-91
2023/10/28 06:09:56;;;;;;;0.20;0.20;;;;;;;17.82;100.00;99539.63;4995635;28;20034;-90
2023/10/28 06:12:22;;;;;;;0.20;0.20;;;;;;;18.21;100.00;99528.47;4996576;28;20029;-90
2023/10/28 06:14:47;;;;;;;0.20;0.20;;;;;;;18.42;100.00;99546.19;5012594;28;20046;-90
2023/10/28 06:17:13;;;;;;;0.20;0.20;;;;;;;18.31;100.00;99550.00;5013931;28;20088;-90
2023/10/28 06:19:40;;;;;;;0.20;0.20;;;;;;;18.40;100.00;99551.47;4996576;28;20112;-90
2023/10/28 06:22:07;;;;;;;0.20;0.20;;;;;;;18.56;100.00;99566.44;5013373;28;20042;-89
2023/10/28 06:24:32;;;;;;;0.20;0.20;;;;;;;18.58;100.00;99546.25;4995914;28;20052;-90
2023/10/28 06:26:59;;;;;;;0.20;0.20;;;;;;;18.58;100.00;99566.00;5013375;28;20398;-90
2023/10/28 06:29:25;;;;;;;0.20;0.20;;;;;;;18.36;100.00;99548.72;4995880;28;20053;-89
2023/10/28 06:31:50;;;;;;;0.20;0.20;;;;;;;18.68;100.00;99579.09;5012971;28;20118;-89
2023/10/28 06:34:16;;;;;;;0.20;0.20;;;;;;;18.64;100.00;99588.81;4996968;28;20073;-89
2023/10/28 06:36:41;;;;;;;0.20;0.20;;;;;;;18.67;100.00;99574.69;4997069;28;20034;-89
2023/10/28 06:39:08;;;;;;;0.20;0.20;;;;;;;18.87;100.00;99597.25;4995270;28;20080;-90
2023/10/28 06:41:34;;;;;;;0.20;0.20;;;;;;;18.83;100.00;99607.81;4995118;28;20122;-89
2023/10/28 06:44:05;;;;;;;0.20;0.20;;;;;;;18.79;100.00;99613.50;4995656;28;20014;-89
2023/10/28 06:46:31;;;;;;;0.20;0.20;;;;;;;18.74;100.00;99599.13;5013114;28;20022;-90
2023/10/28 06:48:57;;;;;;;0.20;0.20;;;;;;;18.64;100.00;99594.44;4979052;28;20117;-90
2023/10/28 06:51:22;;;;;;;0.20;0.20;;;;;;;18.72;100.00;99619.28;5013151;28;20481;-89
2023/10/28 06:53:48;;;;;;;0.20;0.20;;;;;;;18.56;100.00;99610.72;5013079;28;20136;-89
2023/10/28 06:56:14;;;;;;;0.25;0.25;;;;;;;18.86;100.00;99642.81;5012605;28;20069;-90
2023/10/28 06:58:39;;;;;;;0.20;0.20;;;;;;;18.88;100.00;99643.16;4995295;28;20171;-90
2023/10/28 07:01:05;;;;;;;0.20;0.20;;;;;;;18.74;100.00;99605.53;4995341;28;20088;-89
2023/10/28 07:03:30;;;;;;;0.20;0.20;;;;;;;18.92;100.00;99643.88;4994637;28;20036;-90
2023/10/28 07:05:56;;;;;;;0.20;0.20;;;;;;;18.96;100.00;99650.22;4995526;28;20065;-90
2023/10/28 07:08:21;;;;;;;0.20;0.20;;;;;;;18.75;99.17;99595.88;4995294;28;20037;-89
2023/10/28 07:10:48;;;;;;;0.20;0.20;;;;;;;19.54;97.21;99645.78;5013126;28;20113;-90
2023/10/28 07:13:14;;;;;;;0.20;0.20;;;;;;;20.52;90.41;99645.91;5012495;28;20084;-89
2023/10/28 07:15:39;;;;;;;0.20;0.20;;;;;;;19.83;94.63;99645.97;4994587;28;20030;-89
2023/10/28 07:18:07;;;;;;;0.20;0.20;;;;;;;19.83;94.93;99651.59;4994573;28;20428;-89
2023/10/28 07:20:33;;;;;;;0.20;0.20;;;;;;;20.93;90.00;99659.34;4994789;28;20030;-89
2023/10/28 07:23:01;;;;;;;0.20;0.20;;;;;;;21.13;87.97;99662.00;5012503;28;20048;-88
2023/10/28 07:25:27;;;;;;;0.20;0.20;;;;;;;20.89;87.46;99675.59;4995150;28;20025;-89
2023/10/28 07:27:53;;;;;;;0.20;0.20;;;;;;;20.37;92.08;99675.72;4994212;28;20422;-89
2023/10/28 07:30:18;;;;;;;0.20;0.20;;;;;;;20.23;93.46;99682.50;5011975;28;20215;-88
2023/10/28 07:32:44;;;;;;;0.20;0.20;;;;;;;20.33;93.12;99670.16;5012059;28;20049;-89
2023/10/28 07:35:09;;;;;;;0.20;0.20;;;;;;;20.49;92.21;99679.91;5012271;28;20057;-89
2023/10/28 07:37:35;;;;;;;0.20;0.20;;;;;;;20.44;92.82;99686.06;5012315;28;20037;-89
2023/10/28 07:40:03;;;;;;;0.20;0.20;;;;;;;20.26;93.13;99663.91;4994975;28;20025;-89
2023/10/28 07:42:28;;;;;;;0.20;0.20;;;;;;;20.98;89.28;99677.78;5014009;28;20030;-89
2023/10/28 07:44:55;;;;;;;0.20;0.20;;;;;;;20.65;88.95;99651.63;5024089;28;20034;-89
2023/10/28 07:47:21;;;;;;;0.20;0.20;;;;;;;20.76;85.58;99671.13;5025275;28;20085;-90
2023/10/28 07:49:46;;;;;;;0.20;0.20;;;;;;;20.85;85.13;99679.75;5018707;28;20029;-89
2023/10/28 07:52:11;;;;;;;0.20;0.20;;;;;;;20.75;86.16;99686.50;4994138;28;20121;-89
2023/10/28 07:54:37;;;;;;;0.20;0.20;;;;;;;20.69;87.69;99691.09;4994503;28;20091;-89
2023/10/28 07:57:04;;;;;;;0.20;0.20;;;;;;;20.48;87.86;99664.97;4994446;28;20121;-89
2023/10/28 07:59:29;;;;;;;0.20;0.20;;;;;;;20.83;86.97;99688.69;4994185;28;20262;-89
2023/10/28 08:01:55;;;;;;;0.20;0.20;;;;;;;20.87;86.97;99705.53;4993962;28;20508;-89
2023/10/28 08:04:21;;;;;;;0.20;0.20;;;;;;;20.90;85.77;99679.22;4994096;28;20608;-89
2023/10/28 08:06:46;;;;;;;0.20;0.20;;;;;;;21.18;86.34;99714.41;4994281;28;20029;-89
2023/10/28 08:09:11;;;;;;;0.20;0.20;;;;;;;21.09;86.00;99697.28;4993819;28;20033;-90
2023/10/28 08:11:37;;;;;;;0.20;0.20;;;;;;;21.17;86.50;99724.13;4994202;28;20030;-89
2023/10/28 08:14:03;;;;;;;0.20;0.20;;;;;;;21.09;87.00;99728.38;4993716;28;20040;-89
2023/10/28 08:16:29;;;;;;;0.20;0.20;;;;;;;20.89;88.00;99711.56;4993891;28;20033;-89
2023/10/28 08:18:55;;;;;;;0.20;0.20;;;;;;;20.94;87.02;99688.41;4994176;28;20088;-89
2023/10/28 08:21:21;;;;;;;0.20;0.20;;;;;;;22.11;82.56;99725.88;5011241;28;20046;-88
2023/10/28 08:23:47;;;;;;;0.20;0.20;;;;;;;22.28;81.13;99741.50;4994387;28;20099;-89
2023/10/28 08:26:17;;;;;;;0.20;0.20;;;;;;;22.78;79.04;99753.25;4994966;28;20030;-90
2023/10/28 08:28:43;;;;;;;0.20;0.20;;;;;;;22.52;79.61;99738.31;5011461;28;20030;-89
2023/10/28 08:31:09;;;;;;;0.20;0.20;;;;;;;23.11;76.97;99750.91;5015305;28;20018;-89
2023/10/28 08:33:36;;;;;;;0.20;0.20;;;;;;;22.52;80.25;99749.66;5013816;28;20033;-88
2023/10/28 08:36:01;;;;;;;0.20;0.20;;;;;;;21.83;83.60;99738.81;4997810;28;20506;-88
2023/10/28 08:38:27;;;;;;;0.20;0.20;;;;;;;23.22;76.05;99742.78;5013375;28;20030;-90
2023/10/28 08:40:53;;;;;;;0.20;0.20;;;;;;;23.86;70.71;99748.97;4998692;28;20053;-89
2023/10/28 08:43:19;;;;;;;0.20;0.20;;;;;;;24.46;66.34;99748.66;4997758;28;20038;-89
2023/10/28 08:45:46;;;;;;;0.20;0.20;;;;;;;24.74;61.61;99762.94;5014077;28;20030;-89
2023/10/28 08:48:13;;;;;;;0.20;0.20;;;;;;;25.18;58.72;99762.72;4997423;28;20034;-89
2023/10/28 08:50:41;;;;;;;0.20;0.20;;;;;;;25.95;55.02;99762.53;5014827;28;20536;-88
2023/10/28 08:53:07;;;;;;;0.20;0.20;;;;;;;25.63;53.16;99752.59;4997341;28;20026;-88
2023/10/28 08:55:36;;;;;;;0.20;0.20;;;;;;;25.68;53.33;99763.34;5014538;28;20034;-88
2023/10/28 08:58:03;;;;;;;0.20;0.20;;;;;;;26.48;52.00;99777.09;4996982;28;20532;-89
2023/10/28 09:00:30;;;;;;;0.20;0.20;;;;;;;25.82;51.80;99759.84;4997060;28;20477;-88
2023/10/28 09:02:56;;;;;;;0.20;0.20;;;;;;;25.49;52.53;99783.28;5014263;28;20018;-88
2023/10/28 09:05:21;;;;;;;0.10;0.10;;;;;;;26.06;50.80;99745.72;5014392;28;20030;-89
2023/10/28 09:07:47;;;;;;;0.20;0.20;;;;;;;26.46;49.76;99776.78;4996847;28;20022;-89
2023/10/28 09:10:13;;;;;;;0.20;0.20;;;;;;;26.38;49.60;99778.38;4996446;28;20108;-88
2023/10/28 09:12:39;;;;;;;0.20;0.20;;;;;;;26.46;49.57;99773.94;5013989;28;20568;-87
2023/10/28 09:15:05;;;;;;;0.20;0.20;;;;;;;26.04;50.34;99771.03;5014369;28;20117;-88
2023/10/28 09:17:31;;;;;;;0.20;0.20;;;;;;;26.58;49.16;99781.50;4996501;28;20026;-89
2023/10/28 09:19:57;;;;;;;0.20;0.20;;;;;;;26.52;48.74;99783.41;4996965;28;20036;-89
2023/10/28 09:22:25;;;;;;;0.20;0.20;;;;;;;25.23;51.51;99782.03;4996778;28;20044;-88
2023/10/28 09:24:54;;;;;;;0.20;0.20;;;;;;;24.50;53.65;99794.00;4997295;28;20030;-89
2023/10/28 09:27:21;;;;;;;0.20;0.20;;;;;;;24.24;54.66;99771.44;4997651;28;20022;-90
2023/10/28 09:29:46;;;;;;;0.20;0.20;;;;;;;23.88;56.98;99777.72;5014555;28;20113;-89
2023/10/28 09:32:13;;;;;;;0.20;0.20;;;;;;;23.97;56.69;99791.16;5013662;28;20068;-89
2023/10/28 09:34:39;;;;;;;0.20;0.20;;;;;;;23.70;56.92;99786.91;5013940;28;20425;-90
2023/10/28 09:37:09;;;;;;;0.20;0.20;;;;;;;23.69;58.68;99793.03;5014379;28;20026;-90
2023/10/28 09:39:36;;;;;;;0.20;0.20;;;;;;;23.51;58.91;99796.50;5014081;28;20041;-89
2023/10/28 09:42:02;;;;;;;0.20;0.20;;;;;;;23.88;58.40;99793.97;5014730;28;20053;-90
2023/10/28 09:44:28;;;;;;;0.20;0.20;;;;;;;23.69;59.86;99781.69;4996565;28;20022;-89
2023/10/28 09:47:05;;;;;;;0.20;0.20;;;;;;;23.21;60.51;99793.09;4997174;28;20018;-90
2023/10/28 09:49:31;;;;;;;0.20;0.20;;;;;;;23.17;61.92;99802.97;4995815;28;20033;-89
2023/10/28 09:52:07;;;;;;;0.20;0.20;;;;;;;23.04;61.98;99771.81;4996683;28;20053;-89
2023/10/28 09:54:36;;;;;;;0.20;0.20;;;;;;;23.36;61.64;99784.09;4995970;28;20079;-89
2023/10/28 09:57:02;;;;;;;0.20;0.20;;;;;;;23.31;61.51;99807.38;5013826;28;20042;-89
2023/10/28 09:59:33;;;;;;;0.20;0.20;;;;;;;22.98;62.87;99805.66;4996345;28;20176;-89
2023/10/28 10:02:32;;;;;;;0.20;0.20;;;;;;;23.04;63.25;99805.06;5013777;28;20033;-90
2023/10/28 10:05:00;;;;;;;0.20;0.20;;;;;;;23.49;61.95;99788.47;5014563;28;20041;-89
2023/10/28 10:07:28;;;;;;;0.20;0.20;;;;;;;25.05;56.70;99812.03;5013793;28;20485;-89
2023/10/28 10:09:53;;;;;;;0.20;0.20;;;;;;;25.18;55.57;99805.44;4999733;28;20497;-89
2023/10/28 10:12:30;;;;;;;0.20;0.20;;;;;;;25.15;54.94;99797.84;5020095;28;20029;-88
2023/10/28 10:14:56;;;;;;;0.20;0.20;;;;;;;25.09;54.58;99789.16;4996161;28;20062;-90
2023/10/28 10:17:48;;;;;;;0.20;0.20;;;;;;;24.98;54.46;99806.66;5013070;28;20548;-89
2023/10/28 10:20:23;;;;;;;0.20;0.20;;;;;;;24.95;50.48;99778.34;5003006;28;20084;-89
2023/10/28 10:22:58;;;;;;;0.20;0.20;;;;;;;25.14;50.15;99796.25;5013467;28;20053;-90
2023/10/28 10:25:37;;;;;;;0.20;0.20;;;;;;;25.40;49.16;99793.88;4995857;28;20038;-90
2023/10/28 10:28:18;;;;;;;0.20;0.20;;;;;;;25.14;50.16;99768.59;5013570;28;20099;-89
2023/10/28 10:30:44;;;;;;;0.20;0.20;;;;;;;24.97;51.69;99804.25;4995391;28;20049;-89
2023/10/28 10:33:10;;;;;;;0.20;0.20;;;;;;;24.48;51.24;99802.22;5013180;28;20068;-89
2023/10/28 10:35:36;;;;;;;0.20;0.20;;;;;;;24.32;51.86;99800.38;4995518;28;20114;-89
2023/10/28 10:38:07;;;;;;;0.20;0.20;;;;;;;24.49;51.00;99798.09;4997926;28;20017;-88
2023/10/28 10:40:34;;;;;;;0.20;0.20;;;;;;;24.45;51.71;99792.56;4994616;28;20026;-89
2023/10/28 10:43:10;;;;;;;0.20;0.20;;;;;;;24.45;52.19;99786.06;5012906;28;20037;-88
2023/10/28 10:45:36;;;;;;;0.20;0.20;;;;;;;25.23;50.66;99796.25;5013377;28;20112;-89
2023/10/28 10:48:07;;;;;;;0.20;0.20;;;;;;;25.33;49.94;99778.72;5012207;28;20030;-89
2023/10/28 10:50:34;;;;;;;0.15;0.15;;;;;;;25.93;49.59;99780.09;4996156;28;20065;-89
2023/10/28 10:53:00;;;;;;;0.20;0.20;;;;;;;25.37;49.21;99789.16;5012933;28;20049;-89
2023/10/28 10:55:28;;;;;;;0.20;0.20;;;;;;;25.07;51.95;99781.06;4995084;28;20029;-89
2023/10/28 10:57:54;;;;;;;0.20;0.20;;;;;;;25.33;50.74;99780.75;4994858;28;20041;-88
2023/10/28 11:00:20;;;;;;;0.20;0.20;;;;;;;25.52;50.24;99776.66;4995208;28;20053;-89
2023/10/28 11:02:53;;;;;;;0.20;0.20;;;;;;;25.92;49.65;99772.03;4994035;28;20040;-89
2023/10/28 11:05:18;;;;;;;0.20;0.20;;;;;;;26.02;48.47;99768.69;4994951;28;20365;-89
2023/10/28 11:07:45;;;;;;;0.20;0.20;;;;;;;25.92;48.31;99769.97;4995090;28;20037;-90
2023/10/28 11:10:11;;;;;;;0.20;0.20;;;;;;;25.49;50.75;99765.41;4994624;28;20137;-90
2023/10/28 11:12:38;;;;;;;0.20;0.20;;;;;;;25.51;50.80;99769.34;5012836;28;20084;-89
2023/10/28 11:15:04;;;;;;;0.20;0.20;;;;;;;25.46;50.05;99772.88;4994883;28;20323;-89
2023/10/28 11:17:30;;;;;;;0.20;0.20;;;;;;;25.93;48.40;99757.28;5012466;28;20092;-90
2023/10/28 11:20:00;;;;;;;0.20;0.20;;;;;;;25.96;48.81;99762.06;4994512;28;20553;-89
2023/10/28 11:22:26;;;;;;;0.20;0.20;;;;;;;26.24;48.67;99759.91;4995503;28;20042;-89
2023/10/28 11:24:58;;;;;;;0.20;0.20;;;;;;;26.34;47.99;99767.16;4995383;28;20391;-90
2023/10/28 11:27:27;;;;;;;0.20;0.20;;;;;;;26.01;47.67;99760.63;5012815;28;20040;-89